Time;durP1;ratioP1;P1;durP2;ratioP2;P2;SDS_P1;SDS_P2;PMS_P1;PMS_P2;Temp;Humidity;BMP_temperature;BMP_pressure;BME280_temperature;BME280_humidity;BME280_pressure;Samples;Min_cycle;Max_cycle;Signal;HPM_P1;HPM_P2
2022/06/14 00:01:46;;;;;;;10.82;3.35;;;10.60;99.90;;;;;;5095658;28;20542;-52
2022/06/14 00:04:12;;;;;;;12.15;3.17;;;10.50;99.90;;;;;;5113488;28;20043;-49
2022/06/14 00:06:38;;;;;;;7.05;2.88;;;10.60;99.90;;;;;;5113224;28;20040;-50
2022/06/14 00:09:03;;;;;;;8.93;3.53;;;10.60;99.90;;;;;;5113922;28;20039;-50
2022/06/14 00:11:36;;;;;;;10.02;3.25;;;10.50;99.90;;;;;;5113740;28;20035;-51
2022/06/14 00:14:04;;;;;;;7.72;3.47;;;10.50;99.90;;;;;;5113349;28;20043;-53
2022/06/14 00:16:31;;;;;;;9.68;3.67;;;10.50;99.90;;;;;;5113714;28;20031;-49
2022/06/14 00:18:57;;;;;;;7.80;2.95;;;10.50;99.90;;;;;;5113019;28;20089;-53
2022/06/14 00:21:23;;;;;;;8.18;2.90;;;10.50;99.90;;;;;;5113431;28;20048;-53
2022/06/14 00:23:49;;;;;;;7.60;2.92;;;10.50;99.90;;;;;;5113710;28;20043;-52
2022/06/14 00:26:15;;;;;;;11.50;3.08;;;10.50;99.90;;;;;;5112843;28;20382;-51
2022/06/14 00:28:42;;;;;;;9.80;3.08;;;10.40;99.90;;;;;;5113393;28;20389;-50
2022/06/14 00:31:21;;;;;;;6.68;3.00;;;10.40;99.90;;;;;;5113060;28;20486;-49
2022/06/14 00:33:47;;;;;;;8.25;3.30;;;10.40;99.90;;;;;;5113017;28;20039;-51
2022/06/14 00:36:21;;;;;;;10.88;3.35;;;10.40;99.90;;;;;;5112864;28;20135;-49
2022/06/14 00:38:46;;;;;;;7.28;3.17;;;10.20;99.90;;;;;;5113275;28;20404;-50
2022/06/14 00:41:29;;;;;;;8.02;3.85;;;10.20;99.90;;;;;;5112944;28;20044;-49
2022/06/14 00:43:55;;;;;;;7.35;3.03;;;10.20;99.90;;;;;;5112676;28;20552;-48
2022/06/14 00:46:26;;;;;;;8.70;3.72;;;10.20;99.90;;;;;;5113127;28;20074;-48
2022/06/14 00:49:02;;;;;;;10.70;3.83;;;10.10;99.90;;;;;;5112630;28;20089;-48
2022/06/14 00:51:34;;;;;;;9.95;3.88;;;10.20;99.90;;;;;;5112592;28;20040;-49
2022/06/14 00:54:13;;;;;;;10.40;3.80;;;10.10;99.90;;;;;;5113186;28;20058;-52
2022/06/14 00:56:50;;;;;;;8.95;3.35;;;10.10;99.90;;;;;;5112416;28;20047;-50
2022/06/14 00:59:16;;;;;;;7.00;3.33;;;10.10;99.90;;;;;;5112754;28;20040;-48
2022/06/14 01:01:43;;;;;;;8.82;3.35;;;10.00;99.90;;;;;;5114294;28;20088;-49
2022/06/14 01:04:17;;;;;;;7.72;3.50;;;9.90;99.90;;;;;;5116874;28;20086;-49
2022/06/14 01:07:14;;;;;;;7.97;3.60;;;10.00;99.90;;;;;;5116983;28;20062;-48
2022/06/14 01:09:53;;;;;;;6.95;4.00;;;9.90;99.90;;;;;;5108731;28;20048;-48
2022/06/14 01:12:26;;;;;;;10.73;4.32;;;9.90;99.90;;;;;;5116755;28;20114;-47
2022/06/14 01:15:00;;;;;;;8.18;4.38;;;9.90;99.90;;;;;;5098315;28;20046;-47
2022/06/14 01:17:26;;;;;;;8.65;4.97;;;9.90;99.90;;;;;;5117049;28;20104;-48
2022/06/14 01:19:52;;;;;;;8.27;5.30;;;9.80;99.90;;;;;;5117069;28;20048;-48
2022/06/14 01:22:18;;;;;;;8.13;4.93;;;9.80;99.90;;;;;;5098627;28;20497;-48
2022/06/14 01:24:44;;;;;;;11.48;4.93;;;9.70;99.90;;;;;;5116848;28;20039;-47
2022/06/14 01:27:14;;;;;;;9.98;5.18;;;9.70;99.90;;;;;;5116215;28;20040;-47
2022/06/14 01:29:44;;;;;;;11.05;5.50;;;9.70;99.90;;;;;;5116681;28;20431;-52
2022/06/14 01:32:13;;;;;;;11.00;4.90;;;9.70;99.90;;;;;;5116580;28;20040;-48
2022/06/14 01:34:44;;;;;;;13.38;4.85;;;9.70;99.90;;;;;;5115948;28;20126;-49
2022/06/14 01:37:10;;;;;;;11.15;4.55;;;9.70;99.90;;;;;;5116874;28;20114;-51
2022/06/14 01:39:36;;;;;;;11.55;4.82;;;9.70;99.90;;;;;;5116579;28;20075;-49
2022/06/14 01:42:26;;;;;;;11.32;4.63;;;9.60;99.90;;;;;;5116204;28;20448;-48
2022/06/14 01:45:17;;;;;;;11.10;5.20;;;9.60;99.90;;;;;;5116820;28;20503;-52
2022/06/14 01:48:09;;;;;;;9.38;5.00;;;9.70;99.90;;;;;;5116407;28;20039;-52
2022/06/14 01:53:33;;;;;;;11.68;5.35;;;9.60;99.90;;;;;;5115304;28;20055;-51
2022/06/14 01:56:09;;;;;;;10.88;5.78;;;9.50;99.90;;;;;;5115834;28;20070;-52
2022/06/14 01:59:03;;;;;;;12.23;5.68;;;9.50;99.90;;;;;;5115681;28;20043;-52
2022/06/14 02:01:47;;;;;;;9.48;5.40;;;9.50;99.90;;;;;;5097398;28;20093;-50
2022/06/14 02:04:39;;;;;;;10.40;5.93;;;9.50;99.90;;;;;;5115588;28;20397;-49
2022/06/14 02:07:05;;;;;;;9.38;5.40;;;9.50;99.90;;;;;;5116026;28;20075;-52
2022/06/14 02:09:46;;;;;;;12.95;5.47;;;9.40;99.90;;;;;;5115849;28;20102;-53
2022/06/14 02:12:14;;;;;;;13.38;5.93;;;9.50;99.90;;;;;;5114943;28;20040;-50
2022/06/14 02:14:58;;;;;;;12.70;6.03;;;9.50;99.90;;;;;;5116084;28;20044;-48
2022/06/14 02:17:30;;;;;;;9.55;5.20;;;9.50;99.90;;;;;;5115515;28;20063;-52
2022/06/14 02:20:17;;;;;;;11.95;5.00;;;9.40;99.90;;;;;;5115399;28;20623;-49
2022/06/14 02:22:48;;;;;;;10.98;5.50;;;9.50;99.90;;;;;;5115418;28;20044;-50
2022/06/14 02:25:27;;;;;;;10.88;5.32;;;9.50;99.90;;;;;;5115911;28;20402;-49
2022/06/14 02:28:17;;;;;;;9.45;4.97;;;9.50;99.90;;;;;;5097701;28;20127;-49
2022/06/14 02:30:57;;;;;;;9.57;5.18;;;9.50;99.90;;;;;;5115505;28;20046;-47
2022/06/14 02:33:33;;;;;;;14.77;5.35;;;9.40;99.90;;;;;;5115623;28;20114;-49
2022/06/14 02:36:11;;;;;;;12.82;5.60;;;9.40;99.90;;;;;;5114970;28;20043;-48
2022/06/14 02:39:14;;;;;;;10.38;5.47;;;9.50;99.90;;;;;;5115122;28;20086;-52
2022/06/14 02:41:55;;;;;;;10.93;5.10;;;9.50;99.90;;;;;;5093178;28;20120;-49
2022/06/14 02:44:46;;;;;;;12.77;5.75;;;9.50;99.90;;;;;;5115189;28;20497;-51
2022/06/14 02:47:27;;;;;;;10.70;5.18;;;9.50;99.90;;;;;;5096942;28;20092;-48
2022/06/14 02:49:59;;;;;;;9.52;5.50;;;9.40;99.90;;;;;;5115046;28;20047;-50
2022/06/14 02:52:41;;;;;;;12.20;6.05;;;9.50;99.90;;;;;;5115172;28;20059;-52
2022/06/14 02:55:11;;;;;;;10.75;6.00;;;9.40;99.90;;;;;;5114972;28;20043;-53
2022/06/14 02:57:57;;;;;;;12.45;6.22;;;9.40;99.90;;;;;;5115047;28;20051;-49
2022/06/14 03:00:36;;;;;;;9.00;5.30;;;9.50;99.90;;;;;;5114666;28;20453;-52
2022/06/14 03:03:18;;;;;;;11.75;5.65;;;9.40;99.90;;;;;;5115096;28;20278;-51
2022/06/14 03:06:04;;;;;;;8.15;5.25;;;9.40;99.90;;;;;;5114955;28;20047;-51
2022/06/14 03:08:37;;;;;;;13.52;6.38;;;9.40;99.90;;;;;;5114328;28;20124;-50
2022/06/14 03:11:17;;;;;;;12.98;5.80;;;9.40;99.90;;;;;;5114891;28;20043;-50
2022/06/14 03:14:07;;;;;;;10.48;5.53;;;9.50;99.90;;;;;;5114571;28;20040;-48
2022/06/14 03:16:41;;;;;;;12.15;5.95;;;9.50;99.90;;;;;;5114447;28;20044;-48
2022/06/14 03:19:21;;;;;;;10.50;5.85;;;9.50;99.90;;;;;;5114857;28;20043;-48
2022/06/14 03:21:57;;;;;;;10.95;5.88;;;9.50;99.90;;;;;;5114365;28;20489;-48
2022/06/14 03:24:36;;;;;;;11.98;5.68;;;9.50;99.90;;;;;;5113669;28;20096;-49
2022/06/14 03:27:28;;;;;;;8.82;5.03;;;9.50;99.90;;;;;;5114662;28;20400;-49
2022/06/14 03:30:17;;;;;;;12.25;6.53;;;9.50;99.90;;;;;;5114017;28;20050;-48
2022/06/14 03:32:50;;;;;;;9.50;6.88;;;9.60;99.90;;;;;;5114348;28;20043;-48
2022/06/14 03:35:27;;;;;;;13.95;6.32;;;9.60;99.90;;;;;;5114266;28;20059;-48
2022/06/14 03:38:00;;;;;;;14.93;6.53;;;9.70;99.90;;;;;;5095708;28;20439;-48
2022/06/14 03:40:25;;;;;;;9.75;6.35;;;9.70;99.90;;;;;;5114385;28;20047;-47
2022/06/14 03:42:51;;;;;;;11.93;6.47;;;9.70;99.90;;;;;;5114206;28;20123;-50
2022/06/14 03:45:20;;;;;;;11.45;6.10;;;;;;;;;;5114265;28;20470;-48
2022/06/14 03:47:46;;;;;;;13.38;6.95;;;9.80;99.90;;;;;;5114256;28;20474;-49
2022/06/14 03:50:14;;;;;;;14.13;6.25;;;9.90;99.90;;;;;;5113314;28;20068;-48
2022/06/14 03:52:53;;;;;;;13.02;6.20;;;;;;;;;;5113735;28;20055;-48
2022/06/14 03:55:40;;;;;;;10.68;5.90;;;10.00;99.90;;;;;;5114103;28;20143;-48
2022/06/14 03:58:43;;;;;;;8.73;6.28;;;10.10;99.90;;;;;;5113268;28;20048;-48
2022/06/14 04:01:46;;;;;;;13.75;6.15;;;10.20;99.90;;;;;;5113774;28;20047;-48
2022/06/14 04:04:39;;;;;;;12.60;6.25;;;10.30;99.90;;;;;;5113291;28;20047;-49
2022/06/14 04:07:13;;;;;;;11.93;5.82;;;10.40;99.90;;;;;;5094756;28;20047;-48
2022/06/14 04:09:42;;;;;;;15.55;6.63;;;;;;;;;;5113761;28;20039;-50
2022/06/14 04:12:40;;;;;;;12.85;6.15;;;10.50;99.90;;;;;;5113507;28;20032;-51
2022/06/14 04:15:20;;;;;;;12.18;6.05;;;10.70;99.90;;;;;;5098415;28;20052;-52
2022/06/14 04:17:49;;;;;;;14.10;5.60;;;10.80;99.90;;;;;;5113264;28;20050;-49
2022/06/14 04:20:31;;;;;;;10.82;5.38;;;10.80;99.90;;;;;;5113436;28;20036;-49
2022/06/14 04:23:02;;;;;;;13.15;6.70;;;;;;;;;;5113233;28;20035;-51
2022/06/14 04:25:54;;;;;;;11.13;6.30;;;11.00;99.90;;;;;;5113801;28;20039;-48
2022/06/14 04:29:03;;;;;;;10.60;5.78;;;11.20;99.90;;;;;;5113670;28;20118;-53
2022/06/14 04:31:44;;;;;;;8.05;5.97;;;11.30;99.90;;;;;;5101835;28;20051;-49
2022/06/14 04:34:18;;;;;;;9.70;5.20;;;11.50;99.90;;;;;;5113408;28;20040;-51
2022/06/14 04:36:59;;;;;;;12.48;6.00;;;12.20;99.90;;;;;;5112659;28;20123;-49
2022/06/14 04:39:34;;;;;;;10.68;5.93;;;13.10;99.90;;;;;;5113450;28;20054;-49
2022/06/14 04:42:18;;;;;;;14.10;5.40;;;13.60;99.90;;;;;;5112781;28;20036;-48
2022/06/14 04:45:01;;;;;;;11.15;4.82;;;14.30;99.90;;;;;;5112968;28;20489;-51
2022/06/14 04:47:52;;;;;;;11.07;4.97;;;15.00;99.90;;;;;;5095218;28;20093;-48
2022/06/14 04:50:23;;;;;;;11.05;4.93;;;15.50;99.90;;;;;;5093916;28;20052;-52
2022/06/14 04:52:55;;;;;;;9.68;4.82;;;16.00;99.90;;;;;;5112637;28;20091;-52
2022/06/14 04:55:28;;;;;;;10.38;4.93;;;16.40;99.90;;;;;;5095117;28;20063;-52
2022/06/14 04:58:05;;;;;;;9.82;4.32;;;16.80;99.90;;;;;;5113277;28;20044;-53
2022/06/14 05:00:43;;;;;;;8.20;4.10;;;17.20;99.90;;;;;;5112693;28;20062;-52
2022/06/14 05:03:18;;;;;;;9.52;4.13;;;17.60;99.90;;;;;;5094564;28;20122;-53
2022/06/14 05:05:57;;;;;;;9.45;4.13;;;17.80;99.90;;;;;;5095322;28;20143;-51
2022/06/14 05:08:35;;;;;;;8.77;3.83;;;18.20;99.90;;;;;;5112438;28;20092;-48
2022/06/14 05:11:12;;;;;;;6.45;4.00;;;18.40;99.90;;;;;;5112648;28;20480;-50
2022/06/14 05:13:46;;;;;;;9.23;4.30;;;18.80;99.90;;;;;;5112806;28;20489;-49
2022/06/14 05:16:18;;;;;;;8.57;3.80;;;19.10;99.90;;;;;;5112669;28;20044;-50
2022/06/14 05:19:11;;;;;;;9.52;4.07;;;19.50;99.90;;;;;;5113072;28;20118;-51
2022/06/14 05:22:08;;;;;;;9.32;4.03;;;19.90;99.90;;;;;;5107685;28;20062;-49
2022/06/14 05:24:34;;;;;;;12.20;4.18;;;20.20;99.90;;;;;;5113129;28;20482;-49
2022/06/14 05:27:06;;;;;;;12.02;4.28;;;20.70;99.90;;;;;;5112318;28;20052;-48
2022/06/14 05:29:56;;;;;;;8.07;3.20;;;21.10;99.90;;;;;;5112763;28;20048;-49
2022/06/14 05:32:33;;;;;;;8.32;3.00;;;21.40;99.90;;;;;;5112841;28;20040;-49
2022/06/14 05:35:20;;;;;;;10.23;3.58;;;21.80;99.90;;;;;;5112831;28;20097;-51
2022/06/14 05:38:08;;;;;;;8.98;3.03;;;22.00;99.90;;;;;;5112792;28;20110;-51
2022/06/14 05:40:51;;;;;;;5.15;3.00;;;22.40;99.90;;;;;;5112782;28;20047;-50
2022/06/14 05:43:43;;;;;;;9.93;3.50;;;22.70;99.90;;;;;;5094193;28;20081;-52
2022/06/14 05:46:18;;;;;;;7.50;3.22;;;22.80;99.90;;;;;;5094321;28;20045;-49
2022/06/14 05:48:52;;;;;;;7.88;3.03;;;23.00;99.00;;;;;;5115347;28;20380;-48
2022/06/14 05:51:22;;;;;;;9.82;3.20;;;23.20;99.30;;;;;;5116537;28;20555;-48
2022/06/14 05:54:03;;;;;;;9.93;3.50;;;23.40;98.00;;;;;;5116455;28;20606;-53
2022/06/14 05:56:35;;;;;;;9.85;3.63;;;23.40;95.40;;;;;;5116264;28;20057;-50
2022/06/14 05:59:20;;;;;;;7.40;3.03;;;23.40;96.10;;;;;;5116149;28;20051;-52
2022/06/14 06:01:55;;;;;;;7.75;3.38;;;23.50;95.90;;;;;;5116503;28;20040;-51
2022/06/14 06:04:30;;;;;;;6.88;2.50;;;23.50;95.70;;;;;;5116322;28;20086;-49
2022/06/14 06:07:02;;;;;;;7.72;2.80;;;23.60;95.80;;;;;;5116041;28;20443;-49
2022/06/14 06:09:36;;;;;;;6.63;2.72;;;23.70;93.20;;;;;;5116333;28;20047;-49
2022/06/14 06:12:12;;;;;;;6.80;3.08;;;24.20;93.70;;;;;;5097701;28;20039;-49
2022/06/14 06:15:00;;;;;;;9.00;3.30;;;24.20;93.80;;;;;;5116204;28;20055;-50
2022/06/14 06:17:38;;;;;;;8.45;2.72;;;24.30;91.90;;;;;;5116000;28;20039;-49
2022/06/14 06:20:25;;;;;;;7.82;2.90;;;24.50;90.80;;;;;;5116117;28;20043;-53
2022/06/14 06:22:51;;;;;;;;;;;;;;;;;;5116382;28;20042;-50
2022/06/14 06:25:44;;;;;;;10.48;2.92;;;24.80;90.80;;;;;;5097426;28;20346;-53
2022/06/14 06:28:29;;;;;;;7.00;2.88;;;24.90;87.30;;;;;;5090871;28;20493;-49
2022/06/14 06:31:13;;;;;;;5.78;2.65;;;25.20;88.10;;;;;;5115914;28;20048;-51
2022/06/14 06:33:43;;;;;;;7.70;2.80;;;25.10;85.80;;;;;;5115603;28;21108;-53
2022/06/14 06:36:27;;;;;;;7.75;2.60;;;;;;;;;;5115592;28;20383;-50
2022/06/14 06:39:38;;;;;;;5.50;2.47;;;25.30;81.10;;;;;;5115686;28;20036;-53
2022/06/14 06:42:31;;;;;;;7.40;2.10;;;25.40;79.60;;;;;;5052738;28;20543;-49
2022/06/14 06:45:16;;;;;;;6.32;2.40;;;25.60;78.60;;;;;;5052464;28;20609;-51
2022/06/14 06:48:12;;;;;;;7.10;2.88;;;25.70;77.80;;;;;;5052470;28;20114;-49
2022/06/14 06:50:43;;;;;;;;;;;25.50;74.80;;;;;;5044951;28;20427;-51
2022/06/14 06:53:14;;;;;;;11.38;2.92;;;25.50;74.40;;;;;;5037328;28;19928;-53
2022/06/14 06:55:46;;;;;;;8.55;2.63;;;25.30;76.10;;;;;;5032538;28;20128;-53
2022/06/14 06:58:25;;;;;;;7.32;2.40;;;25.30;76.40;;;;;;5032279;28;20034;-50
2022/06/14 07:00:56;;;;;;;6.95;2.42;;;25.30;73.50;;;;;;5031717;28;20133;-54
2022/06/14 07:03:43;;;;;;;6.82;2.55;;;24.60;72.80;;;;;;5032271;28;20120;-50
2022/06/14 07:06:24;;;;;;;7.50;2.60;;;24.00;76.00;;;;;;5032267;28;20060;-52
2022/06/14 07:08:55;;;;;;;6.93;2.40;;;23.30;76.90;;;;;;5032335;28;20052;-49
2022/06/14 07:11:27;;;;;;;7.13;2.67;;;23.40;78.40;;;;;;5015772;28;20041;-52
2022/06/14 07:14:04;;;;;;;7.55;2.60;;;24.20;79.40;;;;;;5093677;28;20529;-53
2022/06/14 07:16:40;;;;;;;6.80;2.65;;;24.30;78.70;;;;;;5094612;28;20055;-52
2022/06/14 07:19:19;;;;;;;7.28;2.10;;;24.50;79.00;;;;;;5094526;28;20048;-53
2022/06/14 07:21:53;;;;;;;6.22;2.05;;;24.70;73.60;;;;;;5094219;28;20409;-49
2022/06/14 07:24:25;;;;;;;6.20;2.63;;;24.90;76.30;;;;;;5094147;28;20051;-49
2022/06/14 07:26:59;;;;;;;5.55;2.13;;;24.00;74.80;;;;;;5094309;28;20044;-50
2022/06/14 07:29:27;;;;;;;8.20;2.58;;;24.00;77.00;;;;;;5094292;28;20048;-53
2022/06/14 07:32:19;;;;;;;6.50;2.30;;;22.20;72.20;;;;;;5093941;28;20050;-50
2022/06/14 07:34:47;;;;;;;6.20;2.28;;;21.90;76.50;;;;;;5094051;28;20047;-50
2022/06/14 07:37:39;;;;;;;6.18;2.25;;;22.10;77.70;;;;;;5094189;28;20040;-50
2022/06/14 07:40:32;;;;;;;7.25;2.20;;;21.40;79.60;;;;;;5093421;28;20052;-50
2022/06/14 07:43:24;;;;;;;6.55;2.17;;;21.20;86.70;;;;;;5094004;28;20044;-50
2022/06/14 07:45:51;;;;;;;7.18;2.78;;;20.40;89.30;;;;;;5062741;28;20132;-49
2022/06/14 07:48:32;;;;;;;7.07;2.30;;;19.90;86.10;;;;;;5093903;28;20044;-49
2022/06/14 07:51:28;;;;;;;6.72;2.38;;;19.80;89.90;;;;;;5093793;28;20408;-53
2022/06/14 07:54:06;;;;;;;6.70;2.33;;;19.20;90.80;;;;;;5093568;28;20051;-52
2022/06/14 07:56:53;;;;;;;8.93;1.98;;;19.10;91.10;;;;;;5093870;28;20044;-49
2022/06/14 07:59:33;;;;;;;6.40;2.30;;;19.10;93.20;;;;;;5094147;28;20470;-50
2022/06/14 08:02:07;;;;;;;4.57;2.08;;;18.80;95.20;;;;;;5093731;28;20055;-52
2022/06/14 08:04:48;;;;;;;8.65;2.25;;;18.50;95.20;;;;;;5093709;28;20044;-50
2022/06/14 08:07:17;;;;;;;4.75;1.65;;;18.30;97.00;;;;;;5093612;28;20044;-53
2022/06/14 08:09:57;;;;;;;4.85;1.85;;;18.10;97.60;;;;;;5093361;28;20490;-49
2022/06/14 08:12:38;;;;;;;5.78;1.90;;;17.50;99.30;;;;;;5093501;28;20085;-51
2022/06/14 08:15:07;;;;;;;8.82;2.13;;;17.70;99.90;;;;;;5093553;28;20063;-48
2022/06/14 08:17:46;;;;;;;4.68;1.70;;;17.90;99.90;;;;;;5093404;28;20072;-50
2022/06/14 08:20:29;;;;;;;6.68;2.08;;;18.00;99.90;;;;;;5075247;28;20044;-52
2022/06/14 08:22:58;;;;;;;5.40;1.85;;;18.40;99.90;;;;;;5093428;28;20062;-53
2022/06/14 08:25:29;;;;;;;5.03;1.90;;;18.30;99.90;;;;;;5093308;28;20050;-52
2022/06/14 08:28:08;;;;;;;5.53;1.85;;;18.80;99.90;;;;;;5093180;28;20115;-49
2022/06/14 08:30:39;;;;;;;6.68;2.03;;;18.30;99.90;;;;;;5075202;28;20044;-51
2022/06/14 08:33:13;;;;;;;4.30;1.52;;;18.40;99.90;;;;;;5074984;28;20077;-50
2022/06/14 08:35:48;;;;;;;3.60;1.20;;;18.40;99.80;;;;;;5093192;28;20044;-51
2022/06/14 08:38:32;;;;;;;4.97;1.60;;;18.40;97.50;;;;;;5093654;28;20089;-52
2022/06/14 08:41:39;;;;;;;7.28;1.75;;;18.80;98.60;;;;;;5093200;28;20090;-50
2022/06/14 08:44:13;;;;;;;3.85;1.30;;;19.30;99.80;;;;;;5092371;28;20098;-48
2022/06/14 08:47:06;;;;;;;5.80;1.98;;;19.90;96.30;;;;;;5092970;28;20042;-49
2022/06/14 08:49:47;;;;;;;5.35;1.60;;;19.90;95.70;;;;;;5074716;28;20044;-48
2022/06/14 08:52:53;;;;;;;3.42;1.70;;;20.60;95.30;;;;;;5099700;28;20546;-53
2022/06/14 08:55:37;;;;;;;5.27;1.87;;;20.20;92.60;;;;;;5113122;28;20051;-49
2022/06/14 08:58:04;;;;;;;5.55;1.65;;;20.10;93.10;;;;;;5112989;28;20509;-48
2022/06/14 09:00:32;;;;;;;5.25;1.77;;;;;;;;;;5113343;28;20047;-50
2022/06/14 09:03:19;;;;;;;4.88;1.60;;;19.20;96.10;;;;;;5113267;28;20409;-53
2022/06/14 09:06:01;;;;;;;6.07;1.85;;;19.50;98.20;;;;;;5113176;28;20039;-48
2022/06/14 09:08:45;;;;;;;5.50;1.75;;;19.50;96.80;;;;;;5112682;28;20433;-51
2022/06/14 09:11:39;;;;;;;4.55;1.50;;;19.60;97.00;;;;;;5112954;28;20393;-50
2022/06/14 09:14:32;;;;;;;3.13;1.60;;;19.50;96.70;;;;;;5030241;28;20049;-51
2022/06/14 09:17:18;;;;;;;4.28;1.92;;;19.50;96.20;;;;;;5030486;28;20037;-53
2022/06/14 09:20:02;;;;;;;4.97;1.50;;;19.00;94.30;;;;;;5030382;28;20057;-53
2022/06/14 09:22:53;;;;;;;8.05;2.03;;;19.40;94.50;;;;;;5031316;28;20284;-52
2022/06/14 09:25:37;;;;;;;2.47;1.00;;;20.00;97.90;;;;;;4956027;29;20062;-53
2022/06/14 09:28:39;;;;;;;3.80;1.30;;;20.10;92.10;;;;;;4956096;29;20055;-52
2022/06/14 09:31:25;;;;;;;4.80;1.50;;;20.60;90.40;;;;;;4955883;29;20171;-52
2022/06/14 09:34:14;;;;;;;4.20;1.40;;;20.70;86.40;;;;;;4945680;29;20047;-52
2022/06/14 09:37:12;;;;;;;3.83;1.40;;;20.80;88.10;;;;;;4955778;29;20082;-52
2022/06/14 09:39:57;;;;;;;3.67;1.27;;;20.90;90.00;;;;;;4955712;29;20047;-52
2022/06/14 09:42:45;;;;;;;3.28;1.52;;;20.90;90.50;;;;;;4955830;29;20502;-49
2022/06/14 09:45:30;;;;;;;5.32;1.77;;;20.50;91.10;;;;;;4955643;29;20055;-49
2022/06/14 09:48:02;;;;;;;5.30;1.55;;;20.40;92.40;;;;;;4955677;29;20402;-52
2022/06/14 09:51:04;;;;;;;5.15;1.83;;;20.40;93.10;;;;;;4973531;28;20061;-50
2022/06/14 09:54:06;;;;;;;4.10;1.25;;;20.30;93.60;;;;;;5033414;28;20057;-50
2022/06/14 09:56:59;;;;;;;5.88;1.50;;;20.00;92.10;;;;;;5033689;28;20654;-49
2022/06/14 09:59:42;;;;;;;6.80;1.90;;;19.60;91.20;;;;;;5033731;28;20046;-49
2022/06/14 10:02:36;;;;;;;4.28;1.30;;;19.60;92.80;;;;;;5066419;28;20401;-53
2022/06/14 10:05:13;;;;;;;4.20;1.60;;;19.80;93.50;;;;;;5116115;28;20107;-50
2022/06/14 10:08:20;;;;;;;4.38;1.52;;;20.60;93.80;;;;;;5116264;28;20050;-53
2022/06/14 10:11:14;;;;;;;5.68;1.35;;;21.50;93.40;;;;;;5115901;28;20051;-52
2022/06/14 10:14:04;;;;;;;4.50;1.67;;;21.90;93.30;;;;;;5097606;28;20374;-49
2022/06/14 10:16:35;;;;;;;4.82;1.40;;;21.80;91.10;;;;;;5115701;28;20058;-53
2022/06/14 10:19:10;;;;;;;2.95;1.20;;;21.80;90.00;;;;;;5115913;28;20071;-53
2022/06/14 10:21:39;;;;;;;4.32;1.27;;;21.30;83.70;;;;;;5115785;28;20048;-51
2022/06/14 10:24:22;;;;;;;5.28;1.63;;;21.20;89.70;;;;;;5115252;28;20040;-50
2022/06/14 10:30:59;;;;;;;4.07;1.63;;;20.90;86.90;;;;;;5072942;28;20117;-49
2022/06/14 10:33:43;;;;;;;5.63;1.30;;;20.60;90.40;;;;;;5072577;28;20052;-52
2022/06/14 10:36:27;;;;;;;3.22;1.15;;;20.80;90.20;;;;;;5072975;28;20396;-53
2022/06/14 10:39:23;;;;;;;5.10;1.55;;;20.90;90.20;;;;;;5072862;28;20052;-50
2022/06/14 10:42:28;;;;;;;4.53;1.20;;;20.80;86.30;;;;;;5072687;28;20123;-49
2022/06/14 10:45:04;;;;;;;2.85;1.30;;;21.20;87.00;;;;;;5072750;28;20051;-52
2022/06/14 10:47:59;;;;;;;4.78;1.40;;;21.00;84.00;;;;;;5072471;28;20067;-51
2022/06/14 10:50:42;;;;;;;3.22;1.30;;;21.10;81.90;;;;;;5072547;28;20049;-52
2022/06/14 10:53:32;;;;;;;8.30;1.52;;;20.70;85.50;;;;;;5071990;28;20098;-49
2022/06/14 10:56:19;;;;;;;2.65;1.38;;;20.70;85.40;;;;;;5072413;28;20048;-54
2022/06/14 10:58:54;;;;;;;4.25;1.60;;;20.50;89.40;;;;;;5072213;28;20182;-51
2022/06/14 11:01:38;;;;;;;6.38;1.50;;;20.30;87.30;;;;;;5072259;28;20036;-54
2022/06/14 11:04:19;;;;;;;5.63;1.85;;;20.40;90.80;;;;;;5072328;28;20048;-51
2022/06/14 11:06:57;;;;;;;4.07;1.48;;;20.30;90.10;;;;;;5104576;28;20523;-53
2022/06/14 11:09:39;;;;;;;5.97;1.60;;;20.50;91.00;;;;;;5115140;28;20048;-52
2022/06/14 11:12:18;;;;;;;5.00;1.33;;;20.10;88.90;;;;;;5114227;28;20043;-52
2022/06/14 11:15:08;;;;;;;2.65;1.10;;;20.20;90.40;;;;;;5114832;28;20044;-51
2022/06/14 11:18:05;;;;;;;3.78;1.30;;;20.20;89.70;;;;;;5114297;28;20036;-52
2022/06/14 11:21:01;;;;;;;3.53;1.15;;;20.50;91.10;;;;;;5114754;28;20047;-49
2022/06/14 11:23:49;;;;;;;2.95;1.17;;;20.70;91.10;;;;;;5114331;28;20052;-49
2022/06/14 11:26:28;;;;;;;2.60;1.58;;;21.10;90.60;;;;;;5114623;28;20093;-52
2022/06/14 11:29:09;;;;;;;4.05;1.27;;;21.20;86.20;;;;;;5114337;28;20051;-53
2022/06/14 11:32:04;;;;;;;5.57;1.48;;;21.80;83.90;;;;;;5114559;28;20061;-53
2022/06/14 11:35:01;;;;;;;3.35;1.10;;;22.40;85.30;;;;;;5097640;28;20040;-50
2022/06/14 11:37:51;;;;;;;3.75;1.25;;;23.20;83.00;;;;;;5114340;28;20054;-51
2022/06/14 11:40:19;;;;;;;2.45;1.10;;;23.10;77.00;;;;;;5114088;28;20130;-52
2022/06/14 11:42:57;;;;;;;3.20;1.20;;;23.00;79.10;;;;;;5114171;28;20383;-51
2022/06/14 11:45:31;;;;;;;3.80;1.30;;;22.40;76.10;;;;;;5113486;28;20050;-49
2022/06/14 11:48:18;;;;;;;1.63;1.00;;;21.60;76.30;;;;;;5095717;28;20051;-49
2022/06/14 11:51:10;;;;;;;4.30;1.05;;;21.20;78.70;;;;;;5114113;28;20100;-53
2022/06/14 11:53:57;;;;;;;3.10;1.20;;;20.70;76.90;;;;;;5095705;28;20055;-49
2022/06/14 11:56:23;;;;;;;2.75;1.15;;;20.70;78.80;;;;;;5113664;28;20127;-52
2022/06/14 11:59:08;;;;;;;2.55;1.20;;;20.60;79.00;;;;;;5114163;28;20078;-51
2022/06/14 12:01:45;;;;;;;4.00;1.20;;;20.60;81.70;;;;;;5113733;28;20044;-51
2022/06/14 12:04:32;;;;;;;2.78;1.05;;;20.60;82.60;;;;;;5113902;28;20047;-51
2022/06/14 12:07:24;;;;;;;2.92;1.30;;;20.70;82.60;;;;;;5113891;28;20082;-49
2022/06/14 12:09:55;;;;;;;5.25;1.55;;;20.90;83.80;;;;;;5113484;28;20043;-49
2022/06/14 12:12:24;;;;;;;3.40;1.30;;;21.40;88.30;;;;;;5113183;28;20046;-49
2022/06/14 12:15:36;;;;;;;4.10;1.15;;;21.70;89.10;;;;;;5113149;28;20043;-50
2022/06/14 12:18:07;;;;;;;3.22;1.15;;;21.50;81.60;;;;;;5071818;28;20047;-51
2022/06/14 12:20:39;;;;;;;3.03;0.95;;;21.70;81.40;;;;;;5113804;28;20406;-49
2022/06/14 12:23:13;;;;;;;3.10;1.20;;;21.30;81.90;;;;;;5113825;28;20040;-51
2022/06/14 12:29:07;;;;;;;2.92;1.20;;;20.90;81.90;;;;;;5112945;28;20044;-51
2022/06/14 12:31:40;;;;;;;4.20;1.40;;;20.60;84.30;;;;;;5113725;28;20047;-49
2022/06/14 12:34:09;;;;;;;2.20;1.05;;;20.40;84.30;;;;;;5113021;28;20063;-48
2022/06/14 12:36:45;;;;;;;3.22;1.38;;;20.30;84.40;;;;;;5113568;28;20055;-48
2022/06/14 12:39:16;;;;;;;3.97;1.63;;;20.90;87.40;;;;;;5113368;28;20118;-48
2022/06/14 12:42:02;;;;;;;5.25;1.52;;;20.90;85.10;;;;;;5095422;28;20040;-48
2022/06/14 12:44:48;;;;;;;3.30;1.15;;;21.70;86.10;;;;;;5112842;28;20086;-48
2022/06/14 12:47:21;;;;;;;3.13;1.02;;;21.40;83.80;;;;;;5112826;28;20108;-49
2022/06/14 12:49:52;;;;;;;3.20;1.20;;;21.30;80.50;;;;;;5112828;28;20048;-53
2022/06/14 12:52:26;;;;;;;1.90;1.10;;;21.70;86.20;;;;;;5095043;28;20435;-53
2022/06/14 12:55:03;;;;;;;2.67;1.17;;;22.20;84.80;;;;;;5113517;28;20043;-52
2022/06/14 12:57:49;;;;;;;3.47;1.30;;;22.70;82.20;;;;;;5115766;28;20058;-52
2022/06/14 13:00:44;;;;;;;2.70;1.10;;;22.60;83.70;;;;;;5116959;28;20447;-50
2022/06/14 13:03:26;;;;;;;2.58;1.00;;;22.40;81.00;;;;;;5116937;28;20501;-52
2022/06/14 13:05:56;;;;;;;3.15;1.00;;;22.40;77.90;;;;;;5116681;28;20043;-52
2022/06/14 13:08:39;;;;;;;2.85;1.10;;;22.40;75.80;;;;;;5117261;28;20051;-52
2022/06/14 13:11:23;;;;;;;1.70;0.80;;;22.70;77.50;;;;;;5117399;28;20123;-53
2022/06/14 13:14:16;;;;;;;2.92;0.70;;;22.40;75.20;;;;;;5098555;28;20058;-53
2022/06/14 13:16:56;;;;;;;2.30;1.00;;;22.00;75.70;;;;;;5117030;28;20047;-50
2022/06/14 13:19:43;;;;;;;2.35;1.00;;;21.90;74.40;;;;;;5116595;28;20486;-49
2022/06/14 13:22:20;;;;;;;2.53;1.10;;;21.50;76.80;;;;;;5116633;28;20044;-52
2022/06/14 13:25:07;;;;;;;2.92;0.88;;;21.40;76.10;;;;;;5116333;28;20129;-49
2022/06/14 13:27:45;;;;;;;;;;;21.20;77.60;;;;;;5117721;28;20048;-50
2022/06/14 13:30:30;;;;;;;3.17;1.20;;;21.50;79.60;;;;;;5116953;28;19926;-51
2022/06/14 13:33:20;;;;;;;3.30;1.00;;;21.80;77.50;;;;;;5116809;28;20043;-50
2022/06/14 13:36:00;;;;;;;2.78;0.88;;;21.70;75.50;;;;;;5098449;28;20043;-52
2022/06/14 13:38:34;;;;;;;2.30;1.13;;;22.00;75.90;;;;;;5116201;28;20047;-50
2022/06/14 13:41:38;;;;;;;1.92;0.88;;;22.40;78.10;;;;;;5117002;28;20047;-51
2022/06/14 13:44:12;;;;;;;2.63;1.20;;;22.10;74.80;;;;;;5116761;28;20051;-49
2022/06/14 13:46:46;;;;;;;1.88;0.90;;;22.60;75.30;;;;;;5081684;28;20044;-50
2022/06/14 13:49:18;;;;;;;3.30;0.98;;;22.80;74.50;;;;;;5116038;28;20040;-48
2022/06/14 13:52:07;;;;;;;2.55;1.00;;;22.70;77.00;;;;;;5116377;28;20165;-49
2022/06/14 13:54:48;;;;;;;3.72;1.17;;;22.90;75.30;;;;;;5116257;28;20139;-48
2022/06/14 13:57:29;;;;;;;2.40;1.00;;;22.40;74.90;;;;;;5097548;28;20043;-49
2022/06/14 14:00:22;;;;;;;2.20;0.90;;;22.30;76.80;;;;;;5115756;28;20762;-49
2022/06/14 14:03:34;;;;;;;1.45;0.77;;;22.50;74.70;;;;;;5101700;28;20507;-48
2022/06/14 14:06:13;;;;;;;3.80;0.90;;;22.90;73.90;;;;;;5116081;28;20035;-49
2022/06/14 14:09:00;;;;;;;2.45;1.08;;;22.90;73.30;;;;;;5115102;28;20039;-49